createdAt,value
2018-11-13T00:00:21.392Z,8.63
2018-11-13T00:02:50.651Z,8.64
2018-11-13T00:05:19.274Z,8.64
2018-11-13T00:07:47.896Z,8.64
2018-11-13T00:10:16.994Z,8.62
2018-11-13T00:12:45.690Z,8.64
2018-11-13T00:15:14.399Z,8.65
2018-11-13T00:17:43.027Z,8.64
2018-11-13T00:20:14.290Z,8.63
2018-11-13T00:22:43.523Z,8.62
2018-11-13T00:25:13.437Z,8.63
2018-11-13T00:27:42.739Z,8.62
2018-11-13T00:30:13.852Z,8.61
2018-11-13T00:32:42.740Z,8.60
2018-11-13T00:35:11.955Z,8.58
2018-11-13T00:37:40.527Z,8.60
2018-11-13T00:40:10.129Z,8.62
2018-11-13T00:42:38.812Z,8.63
2018-11-13T00:45:07.728Z,8.65
2018-11-13T00:47:36.347Z,8.65
2018-11-13T00:50:05.234Z,8.65
2018-11-13T00:52:33.975Z,8.67
2018-11-13T00:55:02.972Z,8.66
2018-11-13T00:57:31.192Z,8.66
2018-11-13T00:59:59.831Z,8.68
2018-11-13T01:02:28.410Z,8.66
2018-11-13T01:04:57.017Z,8.64
2018-11-13T01:07:25.522Z,8.63
2018-11-13T01:09:54.103Z,8.64
2018-11-13T01:12:22.647Z,8.65
2018-11-13T01:14:51.563Z,8.64
2018-11-13T01:17:20.305Z,8.63
2018-11-13T01:19:48.836Z,8.63
2018-11-13T01:22:17.485Z,8.63
2018-11-13T01:24:45.993Z,8.64
2018-11-13T01:27:14.589Z,8.64
2018-11-13T01:29:48.487Z,8.66
2018-11-13T01:32:17.014Z,8.63
2018-11-13T01:34:45.711Z,8.62
2018-11-13T01:37:14.252Z,8.61
2018-11-13T01:39:42.823Z,8.61
2018-11-13T01:42:11.383Z,8.61
2018-11-13T01:44:39.964Z,8.59
2018-11-13T01:47:08.688Z,8.59
2018-11-13T01:49:37.559Z,8.59
2018-11-13T01:52:06.475Z,8.61
2018-11-13T01:54:35.233Z,8.59
2018-11-13T01:57:04.234Z,8.59
2018-11-13T01:59:33.060Z,8.55
2018-11-13T02:02:01.645Z,8.53
2018-11-13T02:04:30.366Z,8.52
2018-11-13T02:06:58.940Z,8.53
2018-11-13T02:09:27.480Z,8.52
2018-11-13T02:11:56.023Z,8.50
2018-11-13T02:14:24.578Z,8.50
2018-11-13T02:16:53.260Z,8.48
2018-11-13T02:19:21.836Z,8.49
2018-11-13T02:21:50.362Z,8.49
2018-11-13T02:24:19.090Z,8.51
2018-11-13T02:26:48.029Z,8.51
2018-11-13T02:29:16.687Z,8.51
2018-11-13T02:31:45.358Z,8.53
2018-11-13T02:34:13.979Z,8.52
2018-11-13T02:36:42.538Z,8.51
2018-11-13T02:39:11.473Z,8.49
2018-11-13T02:41:40.739Z,8.51
2018-11-13T02:44:09.687Z,8.48
2018-11-13T02:46:38.699Z,8.49
2018-11-13T02:49:07.286Z,8.49
2018-11-13T02:51:36.278Z,8.47
2018-11-13T02:54:05.040Z,8.44
2018-11-13T02:56:34.463Z,8.42
2018-11-13T02:59:03.635Z,8.41
2018-11-13T03:01:32.196Z,8.41
2018-11-13T03:04:00.804Z,8.39
2018-11-13T03:06:29.410Z,8.36
2018-11-13T03:08:58.512Z,8.36
2018-11-13T03:11:27.147Z,8.32
2018-11-13T03:13:55.798Z,8.34
2018-11-13T03:16:24.278Z,8.35
2018-11-13T03:18:52.799Z,8.37
2018-11-13T03:21:21.374Z,8.37
2018-11-13T03:23:49.983Z,8.38
2018-11-13T03:26:18.664Z,8.38
2018-11-13T03:28:47.289Z,8.36
2018-11-13T03:31:15.839Z,8.35
2018-11-13T03:33:44.429Z,8.35
2018-11-13T03:36:13.020Z,8.35
2018-11-13T03:38:41.665Z,8.34
2018-11-13T03:41:10.276Z,8.34
2018-11-13T03:43:38.955Z,8.34
2018-11-13T03:46:07.484Z,8.35
2018-11-13T03:48:36.308Z,8.33
2018-11-13T03:51:05.227Z,8.31
2018-11-13T03:53:33.816Z,8.30
2018-11-13T03:56:02.760Z,8.29
2018-11-13T03:58:31.439Z,8.26
2018-11-13T04:01:00.016Z,8.26
2018-11-13T04:03:28.552Z,8.25
2018-11-13T04:05:57.062Z,8.24
2018-11-13T04:08:25.630Z,8.21
2018-11-13T04:10:54.188Z,8.21
2018-11-13T04:13:22.754Z,8.22
2018-11-13T04:15:51.337Z,8.25
2018-11-13T04:18:19.945Z,8.28
2018-11-13T04:20:48.563Z,8.28
2018-11-13T04:23:17.158Z,8.30
2018-11-13T04:25:45.741Z,8.30
2018-11-13T04:28:14.371Z,8.31
2018-11-13T04:30:42.958Z,8.32
2018-11-13T04:33:11.535Z,8.32
2018-11-13T04:35:40.138Z,8.30
2018-11-13T04:38:08.942Z,8.30
2018-11-13T04:40:37.512Z,8.28
2018-11-13T04:43:06.603Z,8.29
2018-11-13T04:45:35.213Z,8.30
2018-11-13T04:48:03.745Z,8.29
2018-11-13T04:50:32.287Z,8.28
2018-11-13T04:53:00.856Z,8.28
2018-11-13T04:55:29.402Z,8.30
2018-11-13T04:57:58.018Z,8.29
2018-11-13T05:00:26.675Z,8.27
2018-11-13T05:02:55.321Z,8.28
2018-11-13T05:05:23.834Z,8.28
2018-11-13T05:07:53.802Z,8.29
2018-11-13T05:10:22.859Z,8.31
2018-11-13T05:12:51.927Z,8.32
2018-11-13T05:15:20.541Z,8.32
2018-11-13T05:17:49.287Z,8.33
2018-11-13T05:20:18.435Z,8.35
2018-11-13T05:22:47.008Z,8.37
2018-11-13T05:25:18.150Z,8.39
2018-11-13T05:27:46.711Z,8.39
2018-11-13T05:30:19.438Z,8.40
2018-11-13T05:32:48.102Z,8.39
2018-11-13T05:35:17.955Z,8.41
2018-11-13T05:37:46.929Z,8.38
2018-11-13T05:40:20.109Z,8.38
2018-11-13T05:42:48.784Z,8.37
2018-11-13T05:45:18.771Z,8.37
2018-11-13T05:47:47.344Z,8.34
2018-11-13T05:50:16.752Z,8.36
2018-11-13T05:52:46.343Z,8.37
2018-11-13T05:55:15.484Z,8.41
2018-11-13T05:57:44.227Z,8.46
2018-11-13T06:00:18.647Z,8.48
2018-11-13T06:02:47.217Z,8.48
2018-11-13T06:05:15.761Z,8.53
2018-11-13T06:07:50.973Z,8.53
2018-11-13T06:10:19.765Z,8.53
2018-11-13T06:12:48.354Z,8.52
2018-11-13T06:15:16.909Z,8.51
2018-11-13T06:17:45.505Z,8.53
2018-11-13T06:20:15.161Z,8.50
2018-11-13T06:22:43.770Z,8.49
2018-11-13T06:25:14.030Z,8.48
2018-11-13T06:27:43.632Z,8.49
2018-11-13T06:30:15.636Z,8.50
2018-11-13T06:32:44.744Z,8.49
2018-11-13T06:35:13.353Z,8.49
2018-11-13T06:37:42.219Z,8.50
2018-11-13T06:40:11.196Z,8.54
2018-11-13T06:42:40.175Z,8.58
2018-11-13T06:45:10.839Z,8.64
2018-11-13T06:47:39.481Z,8.66
2018-11-13T06:50:08.838Z,8.70
2018-11-13T06:52:38.295Z,8.73
2018-11-13T06:55:12.834Z,8.79
2018-11-13T06:57:41.386Z,8.82
2018-11-13T07:00:10.730Z,8.85
2018-11-13T07:02:39.795Z,8.88
2018-11-13T07:05:12.103Z,8.90
2018-11-13T07:07:40.998Z,8.93
2018-11-13T07:10:11.362Z,8.94
2018-11-13T07:12:40.747Z,8.97
2018-11-13T07:15:10.417Z,9.01
2018-11-13T07:17:38.969Z,9.01
2018-11-13T07:20:08.030Z,9.02
2018-11-13T07:22:37.079Z,9.07
2018-11-13T07:25:05.909Z,9.10
2018-11-13T07:27:34.551Z,9.11
2018-11-13T07:30:03.086Z,9.13
2018-11-13T07:32:31.736Z,9.17
2018-11-13T07:35:00.258Z,9.18
2018-11-13T07:37:28.787Z,9.22
2018-11-13T07:39:57.346Z,9.24
2018-11-13T07:42:25.902Z,9.31
2018-11-13T07:44:54.491Z,9.33
2018-11-13T07:47:23.156Z,9.34
2018-11-13T07:49:51.915Z,9.35
2018-11-13T07:52:20.477Z,9.39
2018-11-13T07:54:49.059Z,9.42
2018-11-13T07:57:17.586Z,9.49
2018-11-13T07:59:46.250Z,9.52
2018-11-13T08:02:15.000Z,9.57
2018-11-13T08:04:43.532Z,9.61
2018-11-13T08:07:12.095Z,9.63
2018-11-13T08:09:40.815Z,9.64
2018-11-13T08:12:09.404Z,9.69
2018-11-13T08:14:37.969Z,9.67
2018-11-13T08:17:06.682Z,9.71
2018-11-13T08:19:35.358Z,9.74
2018-11-13T08:22:03.941Z,9.78
2018-11-13T08:24:32.479Z,9.79
2018-11-13T08:27:01.099Z,9.82
2018-11-13T08:29:29.628Z,9.86
2018-11-13T08:31:58.157Z,9.87
2018-11-13T08:34:26.693Z,9.89
2018-11-13T08:36:55.275Z,9.91
2018-11-13T08:39:23.787Z,9.94
2018-11-13T08:41:52.433Z,9.92
2018-11-13T08:44:21.699Z,9.95
2018-11-13T08:46:50.166Z,9.97
2018-11-13T08:49:18.736Z,9.99
2018-11-13T08:51:47.334Z,10.01
2018-11-13T08:54:15.902Z,10.04
2018-11-13T08:56:44.538Z,10.06
2018-11-13T08:59:13.316Z,10.07
2018-11-13T09:01:41.905Z,10.10
2018-11-13T09:04:10.611Z,10.13
2018-11-13T09:06:39.193Z,10.15
2018-11-13T09:09:10.270Z,10.15
2018-11-13T09:11:38.931Z,10.18
2018-11-13T09:14:07.419Z,10.22
2018-11-13T09:16:36.168Z,10.26
2018-11-13T09:19:04.795Z,10.29
2018-11-13T09:21:33.278Z,10.31
2018-11-13T09:24:02.820Z,10.32
2018-11-13T09:26:31.704Z,10.35
2018-11-13T09:29:00.361Z,10.40
2018-11-13T09:31:29.014Z,10.42
2018-11-13T09:33:57.530Z,10.43
2018-11-13T09:36:26.126Z,10.50
2018-11-13T09:38:54.670Z,10.54
2018-11-13T09:41:23.255Z,10.58
2018-11-13T09:43:51.847Z,10.64
2018-11-13T09:46:20.463Z,10.70
2018-11-13T09:48:48.976Z,10.74
2018-11-13T09:51:17.509Z,10.78
2018-11-13T09:53:46.150Z,10.78
2018-11-13T09:56:14.864Z,10.80
2018-11-13T09:58:43.405Z,10.80
2018-11-13T10:01:12.350Z,10.82
2018-11-13T10:03:41.253Z,10.83
2018-11-13T10:06:09.381Z,10.82
2018-11-13T10:08:38.201Z,10.84
2018-11-13T10:11:06.739Z,10.83
2018-11-13T10:13:35.324Z,10.90
2018-11-13T10:16:04.121Z,10.95
2018-11-13T10:18:33.040Z,11.00
2018-11-13T10:21:01.704Z,11.06
2018-11-13T10:23:30.280Z,11.11
2018-11-13T10:25:58.887Z,11.15
2018-11-13T10:28:27.383Z,11.14
2018-11-13T10:30:56.002Z,11.19
2018-11-13T10:33:24.528Z,11.20
2018-11-13T10:35:53.198Z,11.20
2018-11-13T10:38:21.744Z,11.20
2018-11-13T10:40:50.455Z,11.20
2018-11-13T10:43:19.077Z,11.18
2018-11-13T10:45:47.620Z,11.19
2018-11-13T10:48:16.773Z,11.23
2018-11-13T10:50:45.377Z,11.26
2018-11-13T10:53:14.016Z,11.27
2018-11-13T10:55:42.574Z,11.29
2018-11-13T10:58:11.128Z,11.33
2018-11-13T11:00:45.117Z,11.35
2018-11-13T11:03:19.074Z,11.39
2018-11-13T11:05:47.770Z,11.47
2018-11-13T11:08:16.347Z,11.53
2018-11-13T11:10:44.913Z,11.59
2018-11-13T11:13:13.616Z,11.61
2018-11-13T11:15:42.094Z,11.63
2018-11-13T11:18:10.691Z,11.63
2018-11-13T11:20:39.190Z,11.68
2018-11-13T11:23:07.734Z,11.70
2018-11-13T11:25:36.406Z,11.73
2018-11-13T11:28:05.051Z,11.77
2018-11-13T11:30:33.589Z,11.82
2018-11-13T11:33:02.405Z,11.85
2018-11-13T11:35:30.943Z,11.86
2018-11-13T11:37:59.466Z,11.86
2018-11-13T11:40:28.014Z,11.89
2018-11-13T11:42:56.822Z,11.90
2018-11-13T11:45:25.510Z,11.91
2018-11-13T11:47:54.036Z,11.91
2018-11-13T11:50:25.087Z,11.92
2018-11-13T11:52:53.586Z,11.93
2018-11-13T11:55:22.417Z,11.87
2018-11-13T11:57:57.399Z,11.86
2018-11-13T12:00:31.532Z,11.91
2018-11-13T12:03:00.534Z,11.94
2018-11-13T12:05:29.052Z,12.01
2018-11-13T12:07:57.626Z,12.09
2018-11-13T12:10:26.205Z,12.15
2018-11-13T12:12:54.738Z,12.20
2018-11-13T12:15:23.233Z,12.23
2018-11-13T12:17:51.850Z,12.27
2018-11-13T12:20:20.411Z,12.30
2018-11-13T12:22:49.006Z,12.31
2018-11-13T12:25:20.162Z,12.28
2018-11-13T12:27:47.548Z,12.30
2018-11-13T12:30:18.182Z,12.29
2018-11-13T12:32:47.461Z,12.33
2018-11-13T12:35:16.984Z,12.31
2018-11-13T12:37:45.528Z,12.33
2018-11-13T12:40:17.236Z,12.34
2018-11-13T12:42:46.730Z,12.37
2018-11-13T12:45:15.333Z,12.32
2018-11-13T12:47:44.394Z,12.32
2018-11-13T12:50:13.951Z,12.38
2018-11-13T12:52:42.541Z,12.41
2018-11-13T12:55:18.707Z,12.46
2018-11-13T12:57:47.361Z,12.47
2018-11-13T13:00:23.009Z,12.49
2018-11-13T13:02:51.763Z,12.55
2018-11-13T13:05:20.306Z,12.62
2018-11-13T13:07:48.836Z,12.61
2018-11-13T13:10:18.708Z,12.54
2018-11-13T13:12:47.264Z,12.52
2018-11-13T13:15:17.003Z,12.51
2018-11-13T13:17:45.957Z,12.48
2018-11-13T13:20:18.809Z,12.41
2018-11-13T13:22:48.544Z,12.36
2018-11-13T13:25:17.988Z,12.38
2018-11-13T13:27:46.544Z,12.34
2018-11-13T13:30:19.145Z,12.35
2018-11-13T13:32:48.319Z,12.35
2018-11-13T13:35:39.222Z,12.32
2018-11-13T13:38:08.724Z,12.31
2018-11-13T13:40:38.291Z,12.23
2018-11-13T13:43:07.552Z,12.22
2018-11-13T13:45:36.134Z,12.20
2018-11-13T13:48:04.685Z,12.23
2018-11-13T13:50:33.265Z,12.27
2018-11-13T13:53:02.486Z,12.33
2018-11-13T13:55:31.004Z,12.33
2018-11-13T13:57:59.537Z,12.37
2018-11-13T14:00:28.315Z,12.36
2018-11-13T14:02:56.697Z,12.41
2018-11-13T14:05:25.318Z,12.39
2018-11-13T14:07:53.879Z,12.35
2018-11-13T14:10:22.404Z,12.30
2018-11-13T14:12:50.939Z,12.27
2018-11-13T14:15:19.595Z,12.24
2018-11-13T14:17:48.119Z,12.27
2018-11-13T14:20:18.321Z,12.28
2018-11-13T14:22:46.925Z,12.29
2018-11-13T14:25:15.750Z,12.28
2018-11-13T14:27:44.670Z,12.22
2018-11-13T14:30:31.746Z,12.20
2018-11-13T14:33:01.748Z,12.16
2018-11-13T14:35:30.404Z,12.10
2018-11-13T14:37:59.075Z,12.07
2018-11-13T14:40:30.714Z,12.08
2018-11-13T14:42:59.626Z,12.03
2018-11-13T14:45:28.594Z,11.98
2018-11-13T14:47:57.225Z,11.96
2018-11-13T14:50:27.053Z,11.93
2018-11-13T14:52:56.037Z,11.89
2018-11-13T14:55:27.613Z,11.86
2018-11-13T14:57:56.691Z,11.84
2018-11-13T15:00:29.314Z,11.84
2018-11-13T15:02:58.925Z,11.88
2018-11-13T15:05:28.146Z,11.86
2018-11-13T15:07:59.139Z,11.85
2018-11-13T15:10:44.490Z,11.84
2018-11-13T15:13:13.470Z,11.82
2018-11-13T15:15:42.032Z,11.71
2018-11-13T15:18:10.917Z,11.70
2018-11-13T15:20:39.602Z,11.62
2018-11-13T15:23:09.258Z,11.59
2018-11-13T15:25:37.918Z,11.58
2018-11-13T15:28:07.408Z,11.52
2018-11-13T15:30:37.307Z,11.50
2018-11-13T15:33:12.531Z,11.46
2018-11-13T15:35:41.074Z,11.44
2018-11-13T15:38:09.837Z,11.39
2018-11-13T15:40:38.393Z,11.39
2018-11-13T15:43:07.614Z,11.36
2018-11-13T15:45:36.184Z,11.29
2018-11-13T15:48:06.091Z,11.26
2018-11-13T15:50:35.321Z,11.26
2018-11-13T15:53:04.114Z,11.24
2018-11-13T15:55:32.811Z,11.16
2018-11-13T15:58:01.580Z,11.11
2018-11-13T16:00:31.685Z,11.10
2018-11-13T16:03:01.676Z,11.11
2018-11-13T16:05:33.617Z,11.06
2018-11-13T16:08:03.178Z,11.08
2018-11-13T16:10:31.736Z,11.05
2018-11-13T16:13:00.669Z,11.02
2018-11-13T16:15:29.783Z,11.04
2018-11-13T16:17:59.704Z,11.02
2018-11-13T16:20:28.259Z,11.00
2018-11-13T16:22:56.822Z,11.01
2018-11-13T16:25:25.749Z,11.02
2018-11-13T16:27:54.329Z,10.99
2018-11-13T16:30:25.277Z,10.99
2018-11-13T16:32:54.134Z,10.96
2018-11-13T16:35:23.699Z,10.96
2018-11-13T16:37:52.882Z,10.94
2018-11-13T16:40:25.907Z,10.94
2018-11-13T16:42:54.494Z,10.92
2018-11-13T16:45:23.907Z,10.94
2018-11-13T16:47:52.974Z,10.91
2018-11-13T16:50:22.890Z,10.88
2018-11-13T16:52:51.441Z,10.85
2018-11-13T16:55:25.211Z,10.84
2018-11-13T16:57:54.385Z,10.84
2018-11-13T17:00:23.474Z,10.81
2018-11-13T17:02:52.018Z,10.80
2018-11-13T17:05:21.423Z,10.81
2018-11-13T17:07:50.313Z,10.81
2018-11-13T17:10:22.305Z,10.82
2018-11-13T17:12:51.551Z,10.80
2018-11-13T17:15:26.384Z,10.78
2018-11-13T17:17:56.049Z,10.78
2018-11-13T17:20:24.669Z,10.80
2018-11-13T17:22:53.487Z,10.77
2018-11-13T17:25:24.253Z,10.76
2018-11-13T17:27:53.767Z,10.75
2018-11-13T17:30:26.715Z,10.73
2018-11-13T17:32:59.014Z,10.70
2018-11-13T17:35:28.214Z,10.68
2018-11-13T17:37:57.520Z,10.65
2018-11-13T17:40:28.439Z,10.64
2018-11-13T17:42:58.335Z,10.65
2018-11-13T17:45:28.530Z,10.61
2018-11-13T17:47:57.170Z,10.62
2018-11-13T17:50:27.337Z,10.56
2018-11-13T17:52:55.960Z,10.54
2018-11-13T17:55:24.751Z,10.48
2018-11-13T17:57:54.699Z,10.47
2018-11-13T18:00:31.799Z,10.44
2018-11-13T18:03:01.541Z,10.40
2018-11-13T18:05:30.551Z,10.40
2018-11-13T18:08:00.186Z,10.43
2018-11-13T18:10:29.475Z,10.43
2018-11-13T18:12:58.044Z,10.43
2018-11-13T18:15:27.720Z,10.41
2018-11-13T18:17:56.337Z,10.39
2018-11-13T18:20:26.344Z,10.37
2018-11-13T18:22:54.891Z,10.38
2018-11-13T18:25:23.446Z,10.37
2018-11-13T18:27:53.514Z,10.38
2018-11-13T18:30:23.480Z,10.33
2018-11-13T18:32:52.192Z,10.33
2018-11-13T18:35:23.694Z,10.29
2018-11-13T18:37:53.125Z,10.30
2018-11-13T18:40:22.310Z,10.29
2018-11-13T18:42:52.028Z,10.25
2018-11-13T18:45:24.396Z,10.21
2018-11-13T18:47:52.996Z,10.18
2018-11-13T18:50:23.951Z,10.16
2018-11-13T18:52:52.468Z,10.15
2018-11-13T18:55:21.099Z,10.10
2018-11-13T18:57:49.901Z,10.07
2018-11-13T19:00:22.227Z,10.02
2018-11-13T19:02:51.278Z,9.98
2018-11-13T19:05:20.354Z,9.93
2018-11-13T19:07:49.004Z,9.88
2018-11-13T19:10:52.459Z,9.87
2018-11-13T19:13:23.867Z,9.85
2018-11-13T19:15:56.046Z,9.83
2018-11-13T19:18:24.695Z,9.84
2018-11-13T19:20:53.227Z,9.85
2018-11-13T19:23:22.231Z,9.81
2018-11-13T19:25:51.287Z,9.79
2018-11-13T19:28:19.889Z,9.77
2018-11-13T19:30:48.805Z,9.74
2018-11-13T19:33:17.359Z,9.74
2018-11-13T19:35:46.085Z,9.69
2018-11-13T19:38:14.814Z,9.65
2018-11-13T19:40:43.397Z,9.63
2018-11-13T19:43:13.195Z,9.59
2018-11-13T19:45:41.748Z,9.59
2018-11-13T19:48:10.343Z,9.56
2018-11-13T19:50:39.136Z,9.50
2018-11-13T19:53:07.901Z,9.48
2018-11-13T19:55:36.917Z,9.41
2018-11-13T19:58:05.627Z,9.37
2018-11-13T20:00:36.497Z,9.31
2018-11-13T20:03:06.768Z,9.25
2018-11-13T20:05:35.749Z,9.21
2018-11-13T20:08:04.768Z,9.16
2018-11-13T20:10:34.634Z,9.12
2018-11-13T20:13:05.320Z,9.12
2018-11-13T20:15:34.847Z,9.12
2018-11-13T20:18:03.798Z,9.11
2018-11-13T20:20:33.608Z,9.07
2018-11-13T20:23:03.737Z,9.09
2018-11-13T20:25:33.559Z,9.06
2018-11-13T20:28:03.605Z,9.02
2018-11-13T20:30:37.807Z,9.00
2018-11-13T20:33:07.209Z,9.01
2018-11-13T20:35:36.021Z,8.99
2018-11-13T20:38:05.036Z,8.98
2018-11-13T20:40:34.957Z,8.97
2018-11-13T20:43:04.981Z,8.98
2018-11-13T20:45:33.545Z,9.02
2018-11-13T20:48:02.099Z,9.02
2018-11-13T20:50:32.034Z,8.99
2018-11-13T20:53:00.832Z,9.00
2018-11-13T20:55:29.722Z,8.98
2018-11-13T20:57:58.497Z,8.97
2018-11-13T21:00:32.148Z,8.96
2018-11-13T21:03:00.773Z,8.94
2018-11-13T21:05:29.387Z,8.91
2018-11-13T21:07:57.956Z,8.91
2018-11-13T21:10:34.243Z,8.91
2018-11-13T21:13:03.199Z,8.90
2018-11-13T21:15:31.947Z,8.86
2018-11-13T21:18:00.466Z,8.84
2018-11-13T21:20:29.080Z,8.82
2018-11-13T21:22:57.626Z,8.77
2018-11-13T21:25:27.030Z,8.79
2018-11-13T21:27:57.230Z,8.79
2018-11-13T21:30:25.915Z,8.79
2018-11-13T21:32:54.730Z,8.79
2018-11-13T21:35:23.519Z,8.78
2018-11-13T21:37:53.362Z,8.79
2018-11-13T21:40:23.175Z,8.77
2018-11-13T21:42:52.422Z,8.75
2018-11-13T21:45:21.987Z,8.70
2018-11-13T21:47:50.605Z,8.73
2018-11-13T21:50:20.327Z,8.73
2018-11-13T21:52:48.826Z,8.73
2018-11-13T21:55:19.171Z,8.70
2018-11-13T21:57:47.787Z,8.64
2018-11-13T22:00:22.331Z,8.61
2018-11-13T22:02:53.861Z,8.59
2018-11-13T22:05:23.234Z,8.57
2018-11-13T22:07:51.799Z,8.54
2018-11-13T22:10:20.618Z,8.49
2018-11-13T22:12:49.151Z,8.48
2018-11-13T22:15:19.198Z,8.47
2018-11-13T22:17:47.773Z,8.44
2018-11-13T22:20:17.497Z,8.44
2018-11-13T22:22:46.257Z,8.41
2018-11-13T22:25:17.290Z,8.42
2018-11-13T22:27:47.366Z,8.39
2018-11-13T22:30:16.695Z,8.37
2018-11-13T22:32:45.777Z,8.34
2018-11-13T22:35:14.923Z,8.33
2018-11-13T22:37:43.460Z,8.32
2018-11-13T22:40:15.181Z,8.29
2018-11-13T22:42:43.806Z,8.27
2018-11-13T22:45:14.562Z,8.27
2018-11-13T22:47:43.399Z,8.24
2018-11-13T22:50:29.069Z,8.24
2018-11-13T22:52:57.842Z,8.21
2018-11-13T22:55:26.466Z,8.22
2018-11-13T22:57:56.141Z,8.22
2018-11-13T23:00:31.035Z,8.20
2018-11-13T23:02:59.651Z,8.18
2018-11-13T23:05:28.214Z,8.15
2018-11-13T23:07:56.877Z,8.12
2018-11-13T23:10:25.444Z,8.10
2018-11-13T23:12:53.974Z,8.08
2018-11-13T23:15:22.577Z,8.04
2018-11-13T23:17:51.326Z,8.00
2018-11-13T23:20:20.925Z,7.99
2018-11-13T23:22:49.510Z,7.97
2018-11-13T23:25:19.110Z,7.96
2018-11-13T23:27:48.880Z,7.94
2018-11-13T23:30:20.170Z,7.92
2018-11-13T23:32:48.955Z,7.88
2018-11-13T23:35:17.857Z,7.88
2018-11-13T23:37:47.643Z,7.86
2018-11-13T23:40:17.538Z,7.85
2018-11-13T23:42:46.813Z,7.84
2018-11-13T23:45:16.386Z,7.82
2018-11-13T23:47:45.484Z,7.80
2018-11-13T23:50:14.180Z,7.81
2018-11-13T23:52:43.181Z,7.80
2018-11-13T23:55:12.935Z,7.79
2018-11-13T23:57:42.148Z,7.76
